createdAt,value
2023-05-09T00:00:12.183Z,97144.06
2023-05-09T00:02:39.885Z,97140.63
2023-05-09T00:05:08.700Z,97146.09
2023-05-09T00:07:36.216Z,97143.25
2023-05-09T00:10:03.941Z,97143.75
2023-05-09T00:12:31.552Z,97136.56
2023-05-09T00:14:59.328Z,97141.72
2023-05-09T00:17:28.556Z,97134.38
2023-05-09T00:19:56.354Z,97137.97
2023-05-09T00:22:23.867Z,97135.09
2023-05-09T00:24:51.869Z,97136.03
2023-05-09T00:27:19.478Z,97128.97
2023-05-09T00:29:47.479Z,97131.31
2023-05-09T00:32:15.084Z,97140.72
2023-05-09T00:34:43.925Z,97135.38
2023-05-09T00:37:11.435Z,97119.22
2023-05-09T00:39:39.140Z,97120.16
2023-05-09T00:42:06.763Z,97116.88
2023-05-09T00:44:34.297Z,97121.78
2023-05-09T00:47:01.855Z,97105.59
2023-05-09T00:49:29.558Z,97106.50
2023-05-09T00:51:59.189Z,97109.97
2023-05-09T00:54:27.079Z,97101.22
2023-05-09T00:56:54.993Z,97101.09
2023-05-09T00:59:22.656Z,97095.09
2023-05-09T01:01:50.731Z,97089.03
2023-05-09T01:04:18.370Z,97089.06
2023-05-09T01:06:54.601Z,97097.72
2023-05-09T01:09:30.608Z,97097.22
2023-05-09T01:12:11.115Z,97089.69
2023-05-09T01:14:45.154Z,97089.00
2023-05-09T01:17:28.140Z,97080.84
2023-05-09T01:20:10.641Z,97081.78
2023-05-09T01:22:44.365Z,97079.59
2023-05-09T01:25:38.959Z,97082.84
2023-05-09T01:28:15.425Z,97070.94
2023-05-09T01:30:47.490Z,97077.41
2023-05-09T01:33:19.384Z,97069.41
2023-05-09T01:35:52.271Z,97065.34
2023-05-09T01:38:22.917Z,97058.91
2023-05-09T01:40:53.916Z,97062.84
2023-05-09T01:43:24.241Z,97063.97
2023-05-09T01:45:54.672Z,97058.47
2023-05-09T01:48:26.233Z,97058.16
2023-05-09T01:50:55.682Z,97058.41
2023-05-09T01:53:25.710Z,97058.56
2023-05-09T01:55:53.789Z,97054.47
2023-05-09T01:58:23.407Z,97057.91
2023-05-09T02:00:53.044Z,97052.00
2023-05-09T02:03:21.479Z,97051.56
2023-05-09T02:05:49.648Z,97060.69
2023-05-09T02:08:21.080Z,97059.09
2023-05-09T02:10:50.059Z,97057.13
2023-05-09T02:13:18.059Z,97061.06
2023-05-09T02:15:46.195Z,97065.25
2023-05-09T02:18:16.573Z,97057.59
2023-05-09T02:20:44.153Z,97057.03
2023-05-09T02:23:12.434Z,97046.03
2023-05-09T02:25:41.455Z,97049.63
2023-05-09T02:28:10.145Z,97051.81
2023-05-09T02:30:41.297Z,97049.59
2023-05-09T02:33:11.647Z,97044.09
2023-05-09T02:35:42.760Z,97044.75
2023-05-09T02:38:10.764Z,97039.94
2023-05-09T02:40:38.410Z,97044.31
2023-05-09T02:43:06.198Z,97039.78
2023-05-09T02:45:33.927Z,97050.88
2023-05-09T02:48:01.469Z,97044.31
2023-05-09T02:50:29.078Z,97041.16
2023-05-09T02:52:57.924Z,97049.28
2023-05-09T02:55:25.674Z,97041.16
2023-05-09T02:58:05.331Z,97036.66
2023-05-09T03:00:39.952Z,97045.88
2023-05-09T03:03:07.535Z,97042.59
2023-05-09T03:05:35.256Z,97042.75
2023-05-09T03:08:05.038Z,97039.63
2023-05-09T03:10:32.596Z,97033.03
2023-05-09T03:13:00.336Z,97032.28
2023-05-09T03:15:27.929Z,97034.91
2023-05-09T03:17:55.565Z,97031.63
2023-05-09T03:20:23.176Z,97025.81
2023-05-09T03:22:50.731Z,97032.22
2023-05-09T03:25:19.749Z,97028.78
2023-05-09T03:27:47.276Z,97029.56
2023-05-09T03:30:15.679Z,97034.91
2023-05-09T03:32:43.289Z,97034.53
2023-05-09T03:35:11.076Z,97041.28
2023-05-09T03:37:38.571Z,97035.03
2023-05-09T03:40:07.728Z,97028.53
2023-05-09T03:42:36.564Z,97026.50
2023-05-09T03:45:04.356Z,97022.72
2023-05-09T03:47:31.870Z,97033.06
2023-05-09T03:49:59.366Z,97023.69
2023-05-09T03:52:26.902Z,97016.47
2023-05-09T03:54:54.433Z,97018.81
2023-05-09T03:57:21.954Z,97018.50
2023-05-09T03:59:51.274Z,97030.25
2023-05-09T04:02:18.911Z,97027.13
2023-05-09T04:04:47.223Z,97028.41
2023-05-09T04:07:14.850Z,97024.81
2023-05-09T04:09:43.254Z,97028.38
2023-05-09T04:12:10.791Z,97039.03
2023-05-09T04:14:39.134Z,97043.22
2023-05-09T04:17:08.133Z,97033.53
2023-05-09T04:19:35.700Z,97030.44
2023-05-09T04:22:03.258Z,97036.88
2023-05-09T04:24:31.008Z,97033.38
2023-05-09T04:26:58.655Z,97032.00
2023-05-09T04:29:26.610Z,97029.31
2023-05-09T04:31:54.542Z,97026.22
2023-05-09T04:34:23.416Z,97028.69
2023-05-09T04:36:51.956Z,97026.78
2023-05-09T04:39:19.482Z,97024.88
2023-05-09T04:41:47.814Z,97023.13
2023-05-09T04:44:15.336Z,97022.94
2023-05-09T04:46:42.985Z,97027.69
2023-05-09T04:49:10.600Z,97026.09
2023-05-09T04:51:39.512Z,97015.25
2023-05-09T04:54:07.025Z,97009.31
2023-05-09T04:56:34.545Z,97008.97
2023-05-09T04:59:02.047Z,97016.78
2023-05-09T05:01:29.574Z,97008.09
2023-05-09T05:03:57.099Z,97004.91
2023-05-09T05:06:24.799Z,97010.38
2023-05-09T05:08:53.636Z,97010.84
2023-05-09T05:11:21.789Z,97007.53
2023-05-09T05:13:49.349Z,97013.16
2023-05-09T05:16:16.925Z,97009.88
2023-05-09T05:18:44.510Z,97012.66
2023-05-09T05:21:12.049Z,97010.31
2023-05-09T05:23:39.550Z,97010.44
2023-05-09T05:26:08.390Z,97003.16
2023-05-09T05:28:36.047Z,97004.34
2023-05-09T05:31:03.657Z,97003.75
2023-05-09T05:33:31.157Z,97008.97
2023-05-09T05:35:58.693Z,97011.66
2023-05-09T05:38:26.321Z,97013.66
2023-05-09T05:40:53.827Z,97000.53
2023-05-09T05:43:22.768Z,97000.59
2023-05-09T05:45:50.398Z,97005.56
2023-05-09T05:48:17.923Z,97003.53
2023-05-09T05:50:45.443Z,97006.38
2023-05-09T05:53:12.971Z,97008.09
2023-05-09T05:55:40.510Z,97004.09
2023-05-09T05:58:08.011Z,97003.22
2023-05-09T06:00:36.858Z,97002.72
2023-05-09T06:03:04.617Z,96998.53
2023-05-09T06:05:32.314Z,96991.56
2023-05-09T06:07:59.857Z,96992.06
2023-05-09T06:10:27.386Z,96990.50
2023-05-09T06:12:54.980Z,96989.13
2023-05-09T06:15:22.545Z,96985.06
2023-05-09T06:17:51.519Z,96987.03
2023-05-09T06:20:19.129Z,96990.66
2023-05-09T06:22:46.658Z,96980.16
2023-05-09T06:25:14.443Z,96980.81
2023-05-09T06:27:42.858Z,96982.47
2023-05-09T06:30:24.533Z,96975.13
2023-05-09T06:32:55.592Z,96972.56
2023-05-09T06:35:23.222Z,96981.16
2023-05-09T06:37:50.921Z,96972.09
2023-05-09T06:40:18.478Z,96971.94
2023-05-09T06:42:46.161Z,96962.31
2023-05-09T06:45:13.831Z,96957.66
2023-05-09T06:47:41.596Z,96956.50
2023-05-09T06:50:11.040Z,96953.25
2023-05-09T06:52:38.571Z,96949.25
2023-05-09T06:55:07.271Z,96946.84
2023-05-09T06:57:34.824Z,96943.91
2023-05-09T07:00:02.367Z,96946.06
2023-05-09T07:02:29.931Z,96943.97
2023-05-09T07:04:57.475Z,96940.56
2023-05-09T07:07:26.335Z,96937.69
2023-05-09T07:10:00.694Z,96943.25
2023-05-09T07:12:35.256Z,96937.25
2023-05-09T07:15:02.759Z,96932.59
2023-05-09T07:17:30.857Z,96933.38
2023-05-09T07:19:58.364Z,96929.38
2023-05-09T07:22:28.754Z,96924.78
2023-05-09T07:24:58.330Z,96931.19
2023-05-09T07:27:25.855Z,96928.59
2023-05-09T07:29:53.497Z,96911.81
2023-05-09T07:32:21.074Z,96910.44
2023-05-09T07:34:48.776Z,96902.19
2023-05-09T07:37:16.777Z,96904.66
2023-05-09T07:39:46.192Z,96905.44
2023-05-09T07:42:13.792Z,96899.28
2023-05-09T07:44:41.348Z,96893.41
2023-05-09T07:47:08.978Z,96891.81
2023-05-09T07:49:36.663Z,96888.59
2023-05-09T07:52:04.531Z,96886.66
2023-05-09T07:54:32.054Z,96889.56
2023-05-09T07:57:00.965Z,96879.06
2023-05-09T07:59:28.476Z,96874.66
2023-05-09T08:01:56.127Z,96873.44
2023-05-09T08:04:23.732Z,96870.56
2023-05-09T08:06:51.266Z,96860.94
2023-05-09T08:09:19.062Z,96857.25
2023-05-09T08:11:46.638Z,96852.75
2023-05-09T08:14:15.708Z,96860.50
2023-05-09T08:16:43.803Z,96850.28
2023-05-09T08:19:11.294Z,96846.84
2023-05-09T08:21:38.801Z,96841.28
2023-05-09T08:24:07.986Z,96841.50
2023-05-09T08:26:35.629Z,96835.56
2023-05-09T08:29:03.152Z,96818.59
2023-05-09T08:31:32.141Z,96820.75
2023-05-09T08:33:59.707Z,96818.63
2023-05-09T08:36:27.321Z,96807.59
2023-05-09T08:38:54.839Z,96807.38
2023-05-09T08:41:27.838Z,96802.22
2023-05-09T08:43:56.223Z,96802.22
2023-05-09T08:46:28.818Z,96798.09
2023-05-09T08:48:58.769Z,96790.72
2023-05-09T08:51:26.790Z,96789.28
2023-05-09T08:53:55.187Z,96788.00
2023-05-09T08:56:22.814Z,96790.03
2023-05-09T08:58:51.173Z,96780.28
2023-05-09T09:01:19.365Z,96779.53
2023-05-09T09:03:49.429Z,96770.75
2023-05-09T09:06:18.911Z,96775.88
2023-05-09T09:08:48.801Z,96767.59
2023-05-09T09:11:18.508Z,96762.28
2023-05-09T09:13:47.622Z,96757.75
2023-05-09T09:16:19.162Z,96759.78
2023-05-09T09:18:47.570Z,96747.38
2023-05-09T09:21:20.704Z,96747.47
2023-05-09T09:23:49.714Z,96751.19
2023-05-09T09:26:17.524Z,96736.28
2023-05-09T09:28:45.234Z,96746.06
2023-05-09T09:31:23.275Z,96730.06
2023-05-09T09:33:51.404Z,96734.28
2023-05-09T09:36:29.436Z,96725.72
2023-05-09T09:39:01.454Z,96729.34
2023-05-09T09:41:33.590Z,96725.97
2023-05-09T09:44:08.052Z,96722.09
2023-05-09T09:46:43.068Z,96715.13
2023-05-09T09:49:11.049Z,96714.66
2023-05-09T09:51:40.158Z,96708.75
2023-05-09T09:54:08.718Z,96708.59
2023-05-09T09:56:41.016Z,96696.28
2023-05-09T09:59:12.948Z,96694.25
2023-05-09T10:01:57.808Z,96689.03
2023-05-09T10:04:26.380Z,96682.47
2023-05-09T10:06:56.145Z,96680.09
2023-05-09T10:09:24.036Z,96680.53
2023-05-09T10:11:53.013Z,96678.34
2023-05-09T10:14:23.238Z,96674.09
2023-05-09T10:16:53.309Z,96664.84
2023-05-09T10:19:22.089Z,96663.72
2023-05-09T10:21:53.644Z,96655.69
2023-05-09T10:24:28.717Z,96648.84
2023-05-09T10:27:05.008Z,96641.03
2023-05-09T10:29:36.123Z,96640.75
2023-05-09T10:32:11.926Z,96631.16
2023-05-09T10:34:44.402Z,96633.34
2023-05-09T10:37:12.592Z,96629.97
2023-05-09T10:39:42.656Z,96623.44
2023-05-09T10:42:10.659Z,96623.44
2023-05-09T10:44:38.776Z,96616.06
2023-05-09T10:47:07.217Z,96614.91
2023-05-09T10:49:36.985Z,96613.59
2023-05-09T10:52:05.396Z,96606.69
2023-05-09T10:54:33.539Z,96613.53
2023-05-09T10:57:03.490Z,96599.34
2023-05-09T10:59:38.424Z,96590.63
2023-05-09T11:02:06.913Z,96591.75
2023-05-09T11:04:34.487Z,96583.97
2023-05-09T11:07:02.027Z,96580.53
2023-05-09T11:09:32.993Z,96570.19
2023-05-09T11:12:09.742Z,96570.97
2023-05-09T11:14:43.091Z,96562.09
2023-05-09T11:17:12.326Z,96556.31
2023-05-09T11:19:58.973Z,96547.75
2023-05-09T11:22:28.493Z,96542.78
2023-05-09T11:25:04.443Z,96545.13
2023-05-09T11:27:40.536Z,96540.09
2023-05-09T11:30:09.392Z,96539.34
2023-05-09T11:32:43.300Z,96539.75
2023-05-09T11:35:14.539Z,96524.28
2023-05-09T11:37:47.939Z,96532.78
2023-05-09T11:40:17.272Z,96516.97
2023-05-09T11:42:48.561Z,96514.66
2023-05-09T11:45:17.357Z,96497.25
2023-05-09T11:47:46.884Z,96500.75
2023-05-09T11:50:17.032Z,96499.56
2023-05-09T11:52:44.713Z,96490.66
2023-05-09T11:55:14.362Z,96491.06
2023-05-09T11:57:43.043Z,96488.69
2023-05-09T12:00:13.304Z,96483.63
2023-05-09T12:02:41.008Z,96484.09
2023-05-09T12:05:10.408Z,96483.63
2023-05-09T12:07:39.461Z,96480.13
2023-05-09T12:10:08.663Z,96481.38
2023-05-09T12:12:36.375Z,96469.78
2023-05-09T12:15:05.671Z,96467.34
2023-05-09T12:17:35.164Z,96463.13
2023-05-09T12:20:04.627Z,96461.53
2023-05-09T12:22:32.290Z,96455.72
2023-05-09T12:25:02.337Z,96458.56
2023-05-09T12:27:30.139Z,96450.59
2023-05-09T12:29:57.716Z,96448.31
2023-05-09T12:32:31.515Z,96443.66
2023-05-09T12:35:00.840Z,96442.03
2023-05-09T12:37:28.520Z,96443.50
2023-05-09T12:40:04.090Z,96439.59
2023-05-09T12:42:31.790Z,96443.97
2023-05-09T12:44:59.518Z,96433.53
2023-05-09T12:47:31.137Z,96431.16
2023-05-09T12:50:00.615Z,96434.34
2023-05-09T12:52:34.651Z,96426.69
2023-05-09T12:55:07.302Z,96426.63
2023-05-09T12:57:34.857Z,96424.28
2023-05-09T13:00:04.604Z,96422.34
2023-05-09T13:02:35.147Z,96414.28
2023-05-09T13:05:08.846Z,96414.69
2023-05-09T13:07:41.634Z,96413.59
2023-05-09T13:10:14.292Z,96404.25
2023-05-09T13:12:45.009Z,96405.28
2023-05-09T13:15:13.533Z,96403.88
2023-05-09T13:17:41.340Z,96398.66
2023-05-09T13:20:10.801Z,96398.88
2023-05-09T13:22:38.372Z,96405.19
2023-05-09T13:25:06.954Z,96395.22
2023-05-09T13:27:35.121Z,96392.28
2023-05-09T13:30:03.504Z,96390.66
2023-05-09T13:32:31.511Z,96383.38
2023-05-09T13:34:59.066Z,96377.25
2023-05-09T13:37:28.621Z,96364.84
2023-05-09T13:39:56.334Z,96376.84
2023-05-09T13:42:23.886Z,96367.19
2023-05-09T13:44:51.550Z,96370.63
2023-05-09T13:47:19.074Z,96369.84
2023-05-09T13:49:46.545Z,96356.25
2023-05-09T13:52:15.553Z,96355.22
2023-05-09T13:54:44.688Z,96352.53
2023-05-09T13:57:12.538Z,96349.81
2023-05-09T13:59:41.099Z,96346.75
2023-05-09T14:02:10.752Z,96336.69
2023-05-09T14:04:38.362Z,96334.75
2023-05-09T14:07:06.556Z,96328.31
2023-05-09T14:09:39.768Z,96325.22
2023-05-09T14:12:09.519Z,96328.28
2023-05-09T14:14:37.063Z,96328.75
2023-05-09T14:17:04.651Z,96327.97
2023-05-09T14:19:32.152Z,96324.88
2023-05-09T14:21:59.671Z,96321.84
2023-05-09T14:24:30.787Z,96322.63
2023-05-09T14:26:59.258Z,96316.47
2023-05-09T14:29:28.242Z,96307.94
2023-05-09T14:31:55.883Z,96307.94
2023-05-09T14:34:23.384Z,96306.44
2023-05-09T14:36:51.122Z,96314.16
2023-05-09T14:39:19.106Z,96308.38
2023-05-09T14:41:48.919Z,96311.06
2023-05-09T14:44:16.529Z,96307.22
2023-05-09T14:46:45.541Z,96296.81
2023-05-09T14:49:13.096Z,96294.91
2023-05-09T14:51:40.618Z,96300.28
2023-05-09T14:54:08.245Z,96302.22
2023-05-09T14:56:35.777Z,96290.66
2023-05-09T14:59:04.225Z,96296.44
2023-05-09T15:01:31.747Z,96299.84
2023-05-09T15:04:00.700Z,96297.16
2023-05-09T15:06:28.974Z,96298.69
2023-05-09T15:08:56.483Z,96303.63
2023-05-09T15:11:25.250Z,96304.38
2023-05-09T15:13:55.925Z,96306.28
2023-05-09T15:16:23.491Z,96311.44
2023-05-09T15:18:51.004Z,96331.94
2023-05-09T15:21:20.309Z,96342.56
2023-05-09T15:23:47.797Z,96341.50
2023-05-09T15:26:16.876Z,96342.28
2023-05-09T15:28:45.347Z,96349.44
2023-05-09T15:31:12.987Z,96354.16
2023-05-09T15:33:40.716Z,96350.44
2023-05-09T15:36:09.640Z,96355.72
2023-05-09T15:38:38.490Z,96342.56
2023-05-09T15:41:06.131Z,96346.13
2023-05-09T15:43:33.821Z,96350.31
2023-05-09T15:46:01.563Z,96350.66
2023-05-09T15:48:29.093Z,96355.47
2023-05-09T15:50:56.583Z,96364.56
2023-05-09T15:53:24.097Z,96356.13
2023-05-09T15:55:52.946Z,96347.34
2023-05-09T15:58:20.695Z,96355.63
2023-05-09T16:00:48.221Z,96349.56
2023-05-09T16:03:15.783Z,96350.91
2023-05-09T16:05:43.744Z,96355.25
2023-05-09T16:08:11.903Z,96350.50
2023-05-09T16:10:40.350Z,96356.53
2023-05-09T16:13:09.413Z,96361.88
2023-05-09T16:15:37.063Z,96353.16
2023-05-09T16:18:05.294Z,96360.31
2023-05-09T16:20:32.865Z,96354.81
2023-05-09T16:23:00.568Z,96357.97
2023-05-09T16:25:28.136Z,96357.75
2023-05-09T16:27:55.673Z,96363.81
2023-05-09T16:30:24.690Z,96363.81
2023-05-09T16:32:52.575Z,96357.50
2023-05-09T16:35:20.190Z,96360.19
2023-05-09T16:37:47.693Z,96362.03
2023-05-09T16:40:15.884Z,96358.59
2023-05-09T16:42:43.720Z,96356.53
2023-05-09T16:45:11.790Z,96362.38
2023-05-09T16:47:40.693Z,96355.81
2023-05-09T16:50:10.222Z,96346.56
2023-05-09T16:52:37.752Z,96350.38
2023-05-09T16:55:06.131Z,96350.41
2023-05-09T16:57:33.832Z,96350.16
2023-05-09T17:00:01.327Z,96350.25
2023-05-09T17:02:28.847Z,96354.13
2023-05-09T17:04:58.202Z,96349.63
2023-05-09T17:07:25.789Z,96354.13
2023-05-09T17:09:53.337Z,96354.03
2023-05-09T17:12:20.860Z,96351.31
2023-05-09T17:14:49.270Z,96353.97
2023-05-09T17:17:17.769Z,96346.59
2023-05-09T17:19:45.399Z,96348.22
2023-05-09T17:22:14.300Z,96341.81
2023-05-09T17:24:42.100Z,96341.94
2023-05-09T17:27:10.741Z,96342.38
2023-05-09T17:29:38.405Z,96347.91
2023-05-09T17:32:06.655Z,96352.50
2023-05-09T17:34:34.332Z,96352.06
2023-05-09T17:37:02.758Z,96351.22
2023-05-09T17:39:31.645Z,96342.09
2023-05-09T17:41:59.338Z,96348.03
2023-05-09T17:44:27.171Z,96335.66
2023-05-09T17:46:54.703Z,96326.34
2023-05-09T17:49:22.418Z,96333.41
2023-05-09T17:51:52.079Z,96333.66
2023-05-09T17:54:19.845Z,96334.94
2023-05-09T17:56:51.054Z,96336.13
2023-05-09T17:59:20.121Z,96331.72
2023-05-09T18:01:47.730Z,96335.66
2023-05-09T18:04:15.674Z,96342.91
2023-05-09T18:06:43.175Z,96339.28
2023-05-09T18:09:10.709Z,96340.03
2023-05-09T18:11:38.240Z,96353.16
2023-05-09T18:14:07.216Z,96344.47
2023-05-09T18:16:35.602Z,96345.72
2023-05-09T18:19:03.292Z,96354.94
2023-05-09T18:21:32.173Z,96353.47
2023-05-09T18:23:59.742Z,96354.84
2023-05-09T18:26:28.668Z,96348.91
2023-05-09T18:28:56.166Z,96349.31
2023-05-09T18:31:25.126Z,96345.59
2023-05-09T18:33:52.634Z,96348.00
2023-05-09T18:36:20.547Z,96344.28
2023-05-09T18:38:48.208Z,96348.59
2023-05-09T18:41:16.478Z,96349.84
2023-05-09T18:43:46.292Z,96345.78
2023-05-09T18:46:17.052Z,96363.91
2023-05-09T18:48:46.430Z,96353.56
2023-05-09T18:51:14.048Z,96352.19
2023-05-09T18:53:42.403Z,96349.59
2023-05-09T18:56:09.996Z,96349.31
2023-05-09T18:58:38.042Z,96354.19
2023-05-09T19:01:05.768Z,96353.00
2023-05-09T19:03:33.409Z,96359.41
2023-05-09T19:06:02.289Z,96349.28
2023-05-09T19:08:30.391Z,96352.41
2023-05-09T19:10:57.858Z,96359.75
2023-05-09T19:13:25.662Z,96352.31
2023-05-09T19:15:53.224Z,96353.69
2023-05-09T19:18:20.706Z,96357.75
2023-05-09T19:20:48.250Z,96365.19
2023-05-09T19:23:17.102Z,96362.50
2023-05-09T19:25:45.507Z,96363.19
2023-05-09T19:28:14.524Z,96365.31
2023-05-09T19:30:42.054Z,96353.03
2023-05-09T19:33:09.634Z,96361.06
2023-05-09T19:35:38.169Z,96364.16
2023-05-09T19:38:05.851Z,96369.59
2023-05-09T19:40:34.740Z,96366.19
2023-05-09T19:43:02.306Z,96371.06
2023-05-09T19:45:29.801Z,96366.16
2023-05-09T19:47:57.389Z,96376.41
2023-05-09T19:50:25.007Z,96376.66
2023-05-09T19:52:52.554Z,96381.66
2023-05-09T19:55:20.192Z,96380.53
2023-05-09T19:57:49.424Z,96384.13
2023-05-09T20:00:18.095Z,96383.91
2023-05-09T20:02:46.952Z,96387.31
2023-05-09T20:05:14.689Z,96379.53
2023-05-09T20:07:42.304Z,96385.97
2023-05-09T20:10:12.525Z,96381.22
2023-05-09T20:12:40.071Z,96380.38
2023-05-09T20:15:09.822Z,96384.06
2023-05-09T20:17:37.343Z,96395.97
2023-05-09T20:20:05.434Z,96398.56
2023-05-09T20:22:32.939Z,96418.03
2023-05-09T20:25:00.490Z,96408.44
2023-05-09T20:27:28.013Z,96410.81
2023-05-09T20:29:56.394Z,96411.09
2023-05-09T20:32:25.603Z,96407.38
2023-05-09T20:34:53.145Z,96402.53
2023-05-09T20:37:20.741Z,96403.63
2023-05-09T20:39:48.263Z,96401.38
2023-05-09T20:42:15.757Z,96404.25
2023-05-09T20:44:43.241Z,96402.53
2023-05-09T20:47:10.768Z,96403.44
2023-05-09T20:49:39.620Z,96405.25
2023-05-09T20:52:07.104Z,96404.97
2023-05-09T20:54:34.652Z,96397.66
2023-05-09T20:57:02.171Z,96393.00
2023-05-09T20:59:29.675Z,96401.44
2023-05-09T21:01:57.273Z,96395.66
2023-05-09T21:04:24.930Z,96400.34
2023-05-09T21:06:53.819Z,96397.47
2023-05-09T21:09:21.323Z,96391.16
2023-05-09T21:11:48.796Z,96395.28
2023-05-09T21:14:16.434Z,96399.25
2023-05-09T21:16:45.078Z,96396.06
2023-05-09T21:19:12.622Z,96388.28
2023-05-09T21:21:40.143Z,96393.72
2023-05-09T21:24:09.691Z,96394.50
2023-05-09T21:26:37.239Z,96393.56
2023-05-09T21:29:05.189Z,96384.53
2023-05-09T21:31:33.474Z,96381.94
2023-05-09T21:34:01.092Z,96393.84
2023-05-09T21:36:29.052Z,96390.44
2023-05-09T21:38:56.534Z,96376.44
2023-05-09T21:41:25.555Z,96384.66
2023-05-09T21:43:53.093Z,96389.31
2023-05-09T21:46:20.727Z,96379.06
2023-05-09T21:48:48.248Z,96382.34
2023-05-09T21:51:16.082Z,96382.47
2023-05-09T21:53:43.578Z,96382.38
2023-05-09T21:56:11.117Z,96383.56
2023-05-09T21:58:39.981Z,96386.16
2023-05-09T22:01:07.555Z,96385.28
2023-05-09T22:03:35.825Z,96377.78
2023-05-09T22:06:03.386Z,96387.69
2023-05-09T22:08:30.914Z,96382.47
2023-05-09T22:10:58.439Z,96380.94
2023-05-09T22:13:26.722Z,96383.59
2023-05-09T22:15:55.669Z,96393.38
2023-05-09T22:18:23.195Z,96393.72
2023-05-09T22:20:50.747Z,96397.84
2023-05-09T22:23:18.266Z,96396.31
2023-05-09T22:25:45.820Z,96404.94
2023-05-09T22:28:13.353Z,96397.50
2023-05-09T22:30:40.882Z,96398.09
2023-05-09T22:33:09.774Z,96396.63
2023-05-09T22:35:37.297Z,96405.66
2023-05-09T22:38:04.799Z,96400.94
2023-05-09T22:40:32.302Z,96414.19
2023-05-09T22:42:59.824Z,96417.41
2023-05-09T22:45:27.339Z,96424.84
2023-05-09T22:47:54.878Z,96412.28
2023-05-09T22:50:23.731Z,96428.72
2023-05-09T22:52:51.237Z,96431.84
2023-05-09T22:55:19.218Z,96419.06
2023-05-09T22:57:47.368Z,96413.31
2023-05-09T23:00:16.131Z,96417.97
2023-05-09T23:02:43.816Z,96414.75
2023-05-09T23:05:11.423Z,96418.31
2023-05-09T23:07:40.313Z,96413.88
2023-05-09T23:10:08.864Z,96422.06
2023-05-09T23:12:37.783Z,96420.28
2023-05-09T23:15:06.253Z,96416.84
2023-05-09T23:17:33.795Z,96429.84
2023-05-09T23:20:01.525Z,96428.09
2023-05-09T23:22:29.050Z,96426.97
2023-05-09T23:24:59.563Z,96434.97
2023-05-09T23:27:27.230Z,96431.06
2023-05-09T23:29:55.014Z,96429.94
2023-05-09T23:32:22.688Z,96428.19
2023-05-09T23:34:50.228Z,96435.03
2023-05-09T23:37:17.874Z,96436.19
2023-05-09T23:39:45.403Z,96430.41
2023-05-09T23:42:14.253Z,96443.41
2023-05-09T23:44:41.738Z,96438.09
2023-05-09T23:47:09.304Z,96439.41
2023-05-09T23:49:36.820Z,96443.38
2023-05-09T23:52:04.953Z,96442.59
2023-05-09T23:54:32.442Z,96430.41
2023-05-09T23:57:00.067Z,96428.72
2023-05-09T23:59:47.634Z,96436.47
